Time;durP1;ratioP1;P1;durP2;ratioP2;P2;SDS_P1;SDS_P2;PMS_P1;PMS_P2;Temp;Humidity;BMP_temperature;BMP_pressure;BME280_temperature;BME280_humidity;BME280_pressure;Samples;Min_cycle;Max_cycle;Signal;HPM_P1;HPM_P2
2022/07/23 00:01:20;;;;;;;15.30;11.30;;;;;;;25.26;52.09;99016.08;234265;1199;139531;-58
2022/07/23 00:06:24;;;;;;;13.00;11.10;;;;;;;25.28;51.93;99012.04;234262;1199;141668;-60
2022/07/23 00:11:27;;;;;;;14.70;10.70;;;;;;;25.33;51.79;99016.85;234255;1199;139403;-62
2022/07/23 00:16:30;;;;;;;15.10;10.90;;;;;;;25.35;51.71;99010.79;234412;1198;139165;-61
2022/07/23 00:21:33;;;;;;;14.20;10.70;;;;;;;25.30;51.76;99011.06;234218;1199;139453;-59
2022/07/23 00:26:36;;;;;;;14.40;10.60;;;;;;;25.22;51.94;99006.06;234305;1199;142321;-58
2022/07/23 00:31:39;;;;;;;17.10;10.40;;;;;;;25.13;52.05;99002.95;234245;1199;139019;-59
2022/07/23 00:36:42;;;;;;;12.60;10.30;;;;;;;25.04;52.24;99007.85;234063;1199;139506;-58
2022/07/23 00:41:45;;;;;;;16.00;11.30;;;;;;;24.93;52.37;99015.16;234210;1199;139608;-61
2022/07/23 00:46:53;;;;;;;16.40;10.60;;;;;;;24.83;52.65;99016.63;234370;1199;139153;-59
2022/07/23 00:51:57;;;;;;;16.10;10.90;;;;;;;24.74;52.83;99016.80;234283;1199;140295;-62
2022/07/23 00:57:00;;;;;;;15.70;11.30;;;;;;;24.69;53.15;99021.92;234241;1199;140087;-61
2022/07/23 01:02:03;;;;;;;14.10;11.20;;;;;;;24.65;53.18;99023.09;234180;1199;139876;-58
2022/07/23 01:07:07;;;;;;;13.50;11.00;;;;;;;24.60;53.31;99020.27;234224;1198;141347;-58
2022/07/23 01:12:10;;;;;;;14.20;10.60;;;;;;;24.53;53.32;99019.36;234253;1199;139637;-58
2022/07/23 01:17:13;;;;;;;13.00;10.70;;;;;;;24.44;53.40;99020.77;234294;1199;139541;-59
2022/07/23 01:22:19;;;;;;;13.00;11.30;;;;;;;24.36;53.54;99019.35;234251;1199;139703;-60
2022/07/23 01:27:24;;;;;;;15.80;9.80;;;;;;;24.35;53.55;99018.17;234193;1199;139925;-61
2022/07/23 01:32:31;;;;;;;15.20;10.60;;;;;;;24.42;53.51;99014.92;234257;1199;139189;-61
2022/07/23 01:37:34;;;;;;;11.90;10.30;;;;;;;24.34;53.46;99013.58;234126;1199;139453;-59
2022/07/23 01:42:38;;;;;;;12.50;10.30;;;;;;;24.22;53.48;99013.36;234259;1199;139602;-59
2022/07/23 01:47:45;;;;;;;11.70;9.90;;;;;;;24.10;53.53;99016.63;234204;1199;139543;-59
2022/07/23 01:52:49;;;;;;;13.00;10.60;;;;;;;24.01;53.73;99023.56;234373;1198;139482;-60
2022/07/23 01:57:51;;;;;;;13.30;10.30;;;;;;;23.92;53.89;99022.48;233773;1199;139848;-59
2022/07/23 02:03:00;;;;;;;12.70;10.10;;;;;;;23.85;53.94;99021.30;234350;1198;139371;-60
2022/07/23 02:08:03;;;;;;;13.20;9.60;;;;;;;23.94;54.13;99014.45;234163;1199;140180;-57
2022/07/23 02:13:08;;;;;;;15.10;9.80;;;;;;;24.00;54.08;99013.81;234235;1199;139246;-58
2022/07/23 02:18:11;;;;;;;14.10;10.00;;;;;;;23.99;54.02;99015.92;234181;1199;140190;-61
2022/07/23 02:23:14;;;;;;;13.50;10.40;;;;;;;23.96;53.92;99015.08;234253;1199;140382;-60
2022/07/23 02:28:16;;;;;;;14.10;10.50;;;;;;;23.96;53.95;99019.08;234168;1199;139459;-60
2022/07/23 02:33:19;;;;;;;17.70;9.90;;;;;;;23.95;53.78;99018.48;234223;1199;139278;-59
2022/07/23 02:38:23;;;;;;;15.70;10.60;;;;;;;23.93;53.90;99021.00;234176;1199;139059;-61
2022/07/23 02:43:26;;;;;;;18.20;10.50;;;;;;;23.94;53.96;99017.33;234054;1199;140439;-60
2022/07/23 02:48:28;;;;;;;16.60;11.10;;;;;;;23.93;53.94;99015.09;234201;1199;140065;-58
2022/07/23 02:53:34;;;;;;;17.20;10.70;;;;;;;23.92;53.92;99011.87;234122;1199;139920;-59
2022/07/23 02:58:37;;;;;;;12.40;10.10;;;;;;;23.92;53.89;99017.91;234300;1199;139603;-60
2022/07/23 03:03:40;;;;;;;14.10;10.30;;;;;;;23.88;53.75;99019.78;234230;1199;139548;-61
2022/07/23 03:08:43;;;;;;;16.20;10.00;;;;;;;23.83;53.72;99018.59;234221;1199;139149;-60
2022/07/23 03:13:46;;;;;;;15.50;10.70;;;;;;;23.77;53.62;99016.80;234220;1199;140183;-60
2022/07/23 03:18:49;;;;;;;11.90;9.20;;;;;;;23.71;53.72;99011.83;234213;1199;140419;-60
2022/07/23 03:23:51;;;;;;;14.90;10.20;;;;;;;23.67;53.67;99015.20;234234;1199;139627;-60
2022/07/23 03:28:54;;;;;;;17.30;9.80;;;;;;;23.65;53.79;99013.12;234312;1199;139458;-59
2022/07/23 03:33:58;;;;;;;14.40;9.70;;;;;;;23.63;53.77;99006.77;234225;1199;139540;-61
2022/07/23 03:39:01;;;;;;;13.70;9.50;;;;;;;23.61;53.70;99007.55;234140;1199;139419;-59
2022/07/23 03:44:05;;;;;;;13.30;10.10;;;;;;;23.61;53.75;99007.41;234255;1199;139853;-61
2022/07/23 03:49:08;;;;;;;16.70;9.70;;;;;;;23.61;53.88;99005.16;233910;1199;139956;-59
2022/07/23 03:54:11;;;;;;;15.80;9.80;;;;;;;23.63;53.87;99004.21;234178;1199;139461;-60
2022/07/23 03:59:14;;;;;;;14.10;14.10;;;;;;;23.66;53.95;99004.79;234336;1199;139409;-59
2022/07/23 04:04:25;;;;;;;15.30;10.70;;;;;;;23.71;53.91;99000.94;234204;1199;139506;-60
2022/07/23 04:09:28;;;;;;;14.80;11.30;;;;;;;23.72;53.92;99007.02;234235;1198;139845;-60
2022/07/23 04:14:31;;;;;;;15.10;11.00;;;;;;;23.76;54.05;99004.77;234252;1199;140140;-58
2022/07/23 04:19:39;;;;;;;16.40;11.80;;;;;;;23.80;54.12;99006.79;234226;1199;139437;-60
2022/07/23 04:24:43;;;;;;;14.40;11.60;;;;;;;23.87;54.25;99006.30;234169;1199;140574;-59
2022/07/23 04:29:46;;;;;;;17.40;11.00;;;;;;;23.94;54.18;98999.48;234185;1199;139590;-61
2022/07/23 04:34:50;;;;;;;15.90;10.80;;;;;;;24.00;54.04;99002.87;234372;1199;139471;-61
2022/07/23 04:39:53;;;;;;;17.60;11.40;;;;;;;24.04;53.93;98990.91;234190;1199;139368;-59
2022/07/23 04:44:59;;;;;;;13.70;10.00;;;;;;;24.08;53.95;98990.19;234150;1199;140669;-61
2022/07/23 04:50:03;;;;;;;18.10;10.40;;;;;;;24.16;53.93;98992.78;234176;1199;140133;-57
2022/07/23 04:55:07;;;;;;;12.40;9.80;;;;;;;24.24;53.81;98988.48;234240;1199;139303;-59
2022/07/23 05:00:10;;;;;;;15.40;10.00;;;;;;;24.35;53.74;98995.60;234161;1199;139123;-59
2022/07/23 05:05:13;;;;;;;13.50;9.70;;;;;;;24.43;53.63;99002.75;234164;1199;141323;-61
2022/07/23 05:10:17;;;;;;;13.90;9.70;;;;;;;24.50;53.44;98998.45;233989;1199;139979;-61
2022/07/23 05:15:20;;;;;;;13.70;9.50;;;;;;;24.58;53.31;98995.46;234338;1198;139698;-62
2022/07/23 05:20:23;;;;;;;15.50;10.00;;;;;;;24.65;53.35;98993.20;234228;1199;140902;-59
2022/07/23 05:25:26;;;;;;;15.30;10.20;;;;;;;24.73;53.30;98994.20;234188;1199;140606;-60
2022/07/23 05:30:29;;;;;;;14.80;10.20;;;;;;;24.81;53.26;98992.52;234129;1199;139811;-61
2022/07/23 05:35:34;;;;;;;;;;;;;;;24.91;53.39;98995.27;234259;1199;139347;-61
2022/07/23 05:40:56;;;;;;;16.90;10.20;;;;;;;25.04;53.18;98998.77;234394;1199;125383;-62
2022/07/23 05:45:59;;;;;;;13.40;10.30;;;;;;;25.13;53.14;98998.85;234182;1199;140365;-61
2022/07/23 05:51:06;;;;;;;19.00;10.20;;;;;;;25.22;53.24;98994.70;234216;1198;139587;-60
2022/07/23 05:56:10;;;;;;;12.70;10.40;;;;;;;25.32;52.98;98985.05;234211;1199;139365;-61
2022/07/23 06:01:13;;;;;;;15.00;10.60;;;;;;;25.38;53.04;98981.11;234130;1199;140374;-61
2022/07/23 06:06:22;;;;;;;12.10;10.20;;;;;;;25.43;52.85;98982.71;234115;1199;139958;-60
2022/07/23 06:11:26;;;;;;;18.50;11.20;;;;;;;25.51;52.93;98982.39;234102;1199;140344;-62
2022/07/23 06:16:29;;;;;;;16.40;11.20;;;;;;;25.59;52.74;98979.63;234184;1199;139287;-62
2022/07/23 06:21:32;;;;;;;15.50;9.80;;;;;;;25.68;52.87;98979.14;234132;1199;140335;-61
2022/07/23 06:26:49;;;;;;;17.10;9.80;;;;;;;25.76;52.69;98972.15;233933;1202;139778;-59
2022/07/23 06:31:52;;;;;;;15.40;10.90;;;;;;;25.84;52.66;98966.12;234177;1199;139032;-60
2022/07/23 06:36:55;;;;;;;15.50;10.60;;;;;;;25.96;52.59;98960.18;234178;1199;139298;-61
2022/07/23 06:41:58;;;;;;;15.60;10.30;;;;;;;26.11;52.65;98960.77;234205;1199;140007;-61
2022/07/23 06:47:14;;;;;;;15.50;11.30;;;;;;;26.25;52.46;98957.20;234271;1199;139548;-62
2022/07/23 06:52:17;;;;;;;13.30;10.30;;;;;;;26.38;52.39;98956.29;234174;1199;140386;-62
2022/07/23 06:57:20;;;;;;;15.00;10.60;;;;;;;26.50;52.39;98951.98;234090;1199;139687;-59
2022/07/23 07:02:24;;;;;;;15.40;10.50;;;;;;;26.62;52.27;98946.23;234140;1199;140324;-60
2022/07/23 07:07:29;;;;;;;;;;;;;;;26.73;52.01;98940.63;234186;1199;140314;-59
2022/07/23 07:12:32;;;;;;;13.70;10.50;;;;;;;26.84;52.04;98938.27;234165;1199;125970;-61
2022/07/23 07:17:35;;;;;;;18.70;11.10;;;;;;;26.96;52.09;98938.30;234124;1199;139734;-61
2022/07/23 07:22:38;;;;;;;15.10;10.90;;;;;;;27.07;51.81;98942.34;234258;1199;140307;-59
2022/07/23 07:27:43;;;;;;;14.40;10.20;;;;;;;27.15;51.70;98938.66;234240;1198;139440;-61
2022/07/23 07:32:46;;;;;;;16.50;10.40;;;;;;;27.28;51.75;98936.73;234122;1199;139412;-60
2022/07/23 07:37:59;;;;;;;14.90;10.30;;;;;;;27.43;51.59;98929.64;234204;1199;139662;-60
2022/07/23 07:43:03;;;;;;;18.00;12.10;;;;;;;27.57;51.45;98917.92;234124;1199;140628;-59
2022/07/23 07:48:06;;;;;;;19.80;11.40;;;;;;;27.71;51.32;98915.77;234223;1199;139876;-60
2022/07/23 07:53:09;;;;;;;13.70;10.60;;;;;;;27.81;51.19;98912.89;234290;1199;139260;-57
2022/07/23 07:58:12;;;;;;;13.80;9.20;;;;;;;27.89;51.01;98919.47;234175;1199;140687;-60
2022/07/23 08:03:15;;;;;;;11.40;9.40;;;;;;;27.98;50.55;98920.35;234152;1199;140150;-61
2022/07/23 08:08:18;;;;;;;12.00;9.60;;;;;;;28.09;50.34;98926.75;233782;1199;139333;-61
2022/07/23 08:13:21;;;;;;;14.60;9.40;;;;;;;28.17;50.00;98928.77;234139;1199;139318;-61
2022/07/23 08:18:24;;;;;;;15.30;9.80;;;;;;;28.24;49.85;98931.50;234108;1199;139502;-62
2022/07/23 08:23:27;;;;;;;9.90;8.70;;;;;;;28.33;49.65;98937.85;234195;1199;139122;-60
2022/07/23 08:28:32;;;;;;;13.90;9.30;;;;;;;28.47;49.63;98932.97;234257;1199;142198;-60
2022/07/23 08:33:35;;;;;;;12.80;9.10;;;;;;;28.60;49.34;98935.77;234230;1199;139380;-57
2022/07/23 08:38:38;;;;;;;15.50;8.20;;;;;;;28.71;48.97;98938.10;233904;1199;139418;-61
2022/07/23 08:43:42;;;;;;;8.70;6.80;;;;;;;28.82;48.32;98940.34;234151;1199;139921;-61
2022/07/23 08:48:48;;;;;;;10.70;7.10;;;;;;;28.99;47.72;98936.71;234322;1199;139187;-61
2022/07/23 08:53:52;;;;;;;10.50;7.60;;;;;;;29.13;47.20;98929.38;234206;1199;139462;-61
2022/07/23 08:58:55;;;;;;;13.10;7.30;;;;;;;29.26;47.14;98920.51;234376;1199;139261;-61
2022/07/23 09:03:58;;;;;;;8.60;7.40;;;;;;;29.38;46.71;98908.38;234114;1199;139495;-61
2022/07/23 09:09:17;;;;;;;10.80;7.20;;;;;;;29.53;46.52;98898.72;234149;1199;138709;-59
2022/07/23 09:14:48;;;;;;;11.60;7.40;;;;;;;29.71;46.44;98887.72;234162;1199;138991;-62
2022/07/23 09:19:51;;;;;;;9.90;7.70;;;;;;;29.90;46.12;98891.33;234308;1199;139343;-61
2022/07/23 09:25:09;;;;;;;9.80;7.30;;;;;;;30.07;45.62;98893.30;234229;1199;138922;-61
2022/07/23 09:30:12;;;;;;;9.80;7.50;;;;;;;30.25;45.27;98889.30;234139;1199;139396;-61
2022/07/23 09:35:15;;;;;;;11.10;7.70;;;;;;;30.42;45.17;98890.02;234219;1199;140299;-61
2022/07/23 09:40:18;;;;;;;11.70;7.90;;;;;;;30.60;45.05;98890.22;234123;1199;141540;-61
2022/07/23 09:45:21;;;;;;;13.40;9.30;;;;;;;30.73;44.72;98890.25;233964;1199;140660;-62
2022/07/23 09:50:24;;;;;;;10.50;7.10;;;;;;;30.83;44.18;98879.45;234122;1199;139347;-62
2022/07/23 09:55:37;;;;;;;8.20;6.60;;;;;;;30.92;43.81;98863.35;234028;1199;141353;-60
2022/07/23 10:00:40;;;;;;;9.60;5.90;;;;;;;31.05;43.25;98865.59;234107;1199;139730;-60
2022/07/23 10:05:45;;;;;;;7.80;7.10;;;;;;;31.12;42.51;98861.15;233960;1199;140004;-59
2022/07/23 10:11:07;;;;;;;8.40;6.70;;;;;;;31.13;42.40;98858.59;234182;1199;139527;-59
2022/07/23 10:16:21;;;;;;;8.90;6.90;;;;;;;31.27;42.02;98856.06;233562;1199;139842;-60
2022/07/23 10:21:50;;;;;;;12.40;7.20;;;;;;;31.42;41.68;98857.10;234119;1199;139277;-58
2022/07/23 10:27:05;;;;;;;8.60;7.20;;;;;;;31.70;41.57;98852.86;234048;1199;141208;-60
2022/07/23 10:32:36;;;;;;;9.90;6.50;;;;;;;31.95;41.15;98852.39;234202;1199;139942;-58
2022/07/23 10:37:43;;;;;;;10.00;7.20;;;;;;;32.15;40.78;98850.96;234127;1199;139705;-59
2022/07/23 10:42:47;;;;;;;12.50;7.80;;;;;;;32.18;40.47;98850.16;234089;1199;139961;-58
2022/07/23 10:47:50;;;;;;;10.10;7.20;;;;;;;32.19;40.28;98840.73;233972;1199;140082;-60
2022/07/23 10:53:06;;;;;;;9.70;7.50;;;;;;;32.34;40.27;98834.80;234272;1198;139827;-59
2022/07/23 10:58:09;;;;;;;11.00;7.10;;;;;;;32.50;40.00;98830.48;234124;1199;139479;-60
2022/07/23 11:03:36;;;;;;;9.70;6.90;;;;;;;32.58;39.38;98825.21;234193;1199;140171;-61
2022/07/23 11:08:39;;;;;;;8.60;7.10;;;;;;;32.63;39.63;98819.41;234130;1199;139232;-60
2022/07/23 11:13:45;;;;;;;12.30;7.30;;;;;;;32.88;39.78;98811.89;234053;1199;139554;-61
2022/07/23 11:18:48;;;;;;;9.60;7.30;;;;;;;33.15;39.20;98809.18;233412;1199;139603;-60
2022/07/23 11:24:00;;;;;;;6.40;5.50;;;;;;;33.30;38.51;98806.96;234168;1199;139371;-60
2022/07/23 11:29:26;;;;;;;6.30;5.40;;;;;;;33.45;37.47;98804.97;234247;1199;139619;-60
2022/07/23 11:34:39;;;;;;;6.00;5.30;;;;;;;33.67;36.94;98805.16;234250;1199;140024;-59
2022/07/23 11:39:46;;;;;;;;;;;;;;;33.87;35.82;98796.33;234029;1199;139896;-60
2022/07/23 11:44:50;;;;;;;8.00;5.50;;;;;;;34.02;35.49;98788.91;234194;1199;125724;-60
2022/07/23 11:49:57;;;;;;;;;;;;;;;34.23;35.39;98784.90;234078;1199;139705;-59
2022/07/23 11:55:06;;;;;;;7.50;5.30;;;;;;;34.39;35.24;98773.79;234106;1199;126342;-59
2022/07/23 12:00:16;;;;;;;6.50;5.20;;;;;;;34.55;35.07;98768.38;234000;1199;139937;-59
2022/07/23 12:05:21;;;;;;;9.50;5.00;;;;;;;34.70;34.61;98763.31;234168;1199;139272;-60
2022/07/23 12:10:27;;;;;;;7.70;6.20;;;;;;;34.82;34.15;98760.02;234118;1199;139398;-60
2022/07/23 12:15:39;;;;;;;7.40;5.30;;;;;;;34.94;33.49;98748.52;234136;1199;139293;-61
2022/07/23 12:20:44;;;;;;;6.30;5.60;;;;;;;35.07;33.21;98746.47;234089;1198;139550;-61
2022/07/23 12:25:49;;;;;;;7.70;5.40;;;;;;;35.04;32.97;98734.66;234169;1199;139537;-60
2022/07/23 12:30:55;;;;;;;8.00;5.50;;;;;;;34.98;32.83;98733.26;233903;1199;141098;-58
2022/07/23 12:36:04;;;;;;;5.90;5.30;;;;;;;34.91;32.46;98725.10;234061;1199;139140;-60
2022/07/23 12:41:08;;;;;;;7.10;5.60;;;;;;;34.87;32.68;98717.75;234173;1198;139077;-59
2022/07/23 12:46:18;;;;;;;5.90;5.10;;;;;;;34.88;32.40;98720.48;234083;1199;139472;-58
2022/07/23 12:51:32;;;;;;;7.50;5.70;;;;;;;34.91;32.74;98714.04;234108;1199;139613;-60
2022/07/23 12:56:37;;;;;;;7.00;5.20;;;;;;;34.97;32.43;98702.98;234169;1199;139660;-60
2022/07/23 13:01:48;;;;;;;9.00;5.50;;;;;;;35.13;32.58;98700.70;234139;1199;139272;-61
2022/07/23 13:06:55;;;;;;;6.70;5.00;;;;;;;35.28;32.10;98694.64;234134;1199;139149;-61
2022/07/23 13:12:02;;;;;;;5.50;4.90;;;;;;;35.30;32.35;98690.90;234117;1199;139062;-57
2022/07/23 13:17:07;;;;;;;8.10;5.90;;;;;;;35.32;32.68;98690.23;234226;1199;140823;-61
2022/07/23 13:22:11;;;;;;;;;;;;;;;35.20;31.85;98683.73;234106;1199;139246;-60
2022/07/23 13:27:14;;;;;;;9.30;5.70;;;;;;;35.01;31.99;98682.02;233745;1198;126361;-62
2022/07/23 13:32:19;;;;;;;6.20;5.60;;;;;;;34.84;31.76;98679.05;234156;1199;139246;-60
2022/07/23 13:37:22;;;;;;;8.80;6.10;;;;;;;34.75;32.12;98673.49;233392;1199;139739;-61
2022/07/23 13:42:27;;;;;;;7.90;5.70;;;;;;;34.76;32.35;98665.77;234091;1199;139163;-62
2022/07/23 13:47:31;;;;;;;;;;;;;;;34.73;32.17;98662.86;234202;1198;139265;-60
2022/07/23 13:52:34;;;;;;;6.90;5.60;;;;;;;34.78;31.89;98659.65;234237;1199;127280;-62
2022/07/23 13:57:37;;;;;;;8.10;5.90;;;;;;;34.89;32.02;98649.02;234174;1199;139734;-61
2022/07/23 14:02:40;;;;;;;7.70;6.10;;;;;;;34.97;31.97;98649.63;233916;1198;139072;-61
2022/07/23 14:07:49;;;;;;;6.50;5.80;;;;;;;34.87;32.07;98643.23;233826;1199;140537;-60
2022/07/23 14:12:55;;;;;;;7.70;6.10;;;;;;;34.49;31.37;98640.05;234083;1199;140338;-63
2022/07/23 14:17:58;;;;;;;7.30;6.20;;;;;;;34.16;31.49;98639.56;234044;1199;143440;-61
2022/07/23 14:23:02;;;;;;;;;;;;;;;33.90;31.53;98622.63;234109;1199;139730;-62
2022/07/23 14:28:07;;;;;;;7.30;6.50;;;;;;;33.61;31.72;98601.41;234144;1199;127275;-59
2022/07/23 14:33:10;;;;;;;7.50;6.80;;;;;;;33.32;32.13;98596.65;234076;1199;139290;-62
2022/07/23 14:38:13;;;;;;;7.80;7.00;;;;;;;33.05;32.34;98594.61;234018;1199;139684;-61
2022/07/23 14:43:16;;;;;;;10.80;6.50;;;;;;;32.85;32.56;98596.29;234084;1198;139372;-61
2022/07/23 14:48:19;;;;;;;7.80;6.60;;;;;;;32.67;32.92;98604.31;234096;1198;141027;-63
2022/07/23 14:53:23;;;;;;;47.90;40.30;;;;;;;32.52;33.25;98630.55;234183;1199;139945;-61
2022/07/23 14:58:28;;;;;;;;;;;;;;;32.41;33.43;98644.04;234167;1199;139672;-58
2022/07/23 15:03:32;;;;;;;11.30;10.00;;;;;;;32.31;33.68;98629.80;234219;1199;126869;-58
2022/07/23 15:08:44;;;;;;;9.10;7.40;;;;;;;32.21;34.13;98631.65;234148;1199;139773;-60
2022/07/23 15:13:49;;;;;;;8.10;6.40;;;;;;;32.10;34.17;98642.00;234072;1199;140688;-59
2022/07/23 15:18:52;;;;;;;95.20;52.60;;;;;;;31.93;33.92;98752.32;234180;1199;139522;-60
2022/07/23 15:23:59;;;;;;;41.50;7.40;;;;;;;31.29;33.78;98744.97;234166;1199;140487;-59
2022/07/23 15:29:05;;;;;;;26.90;7.60;;;;;;;30.62;34.35;98808.20;234209;1199;141663;-60
2022/07/23 15:34:09;;;;;;;23.70;10.00;;;;;;;29.62;37.03;98853.28;234046;1199;139905;-61
2022/07/23 15:39:12;;;;;;;17.50;9.80;;;;;;;28.46;39.55;98836.57;234046;1199;139655;-62
2022/07/23 15:44:15;;;;;;;20.30;9.10;;;;;;;27.71;41.75;98768.90;234076;1199;140425;-61
2022/07/23 15:49:31;;;;;;;16.20;8.50;;;;;;;27.26;43.42;98762.17;234207;1199;139514;-61
2022/07/23 15:54:34;;;;;;;17.80;9.10;;;;;;;27.07;44.66;98770.56;234057;1199;139910;-54
2022/07/23 15:59:38;;;;;;;15.10;9.20;;;;;;;26.93;46.04;98805.03;234165;1199;139516;-58
2022/07/23 16:04:43;;;;;;;13.90;9.70;;;;;;;26.84;46.90;98853.63;234209;1199;139298;-59
2022/07/23 16:09:46;;;;;;;13.70;10.90;;;;;;;26.77;47.32;98866.16;234156;1199;139327;-56
2022/07/23 16:14:49;;;;;;;24.70;18.90;;;;;;;26.72;47.64;98856.64;234129;1199;140476;-59
2022/07/23 16:19:52;;;;;;;16.70;11.00;;;;;;;26.72;47.91;98859.83;234080;1199;139932;-59
2022/07/23 16:24:55;;;;;;;114.40;91.00;;;;;;;26.69;48.35;98877.50;234094;1199;139608;-58
2022/07/23 16:29:58;;;;;;;22.20;16.30;;;;;;;26.65;48.97;98838.84;234057;1199;140113;-59
2022/07/23 16:35:02;;;;;;;18.60;12.00;;;;;;;26.69;49.91;98737.72;234307;1199;140005;-58
2022/07/23 16:40:15;;;;;;;15.50;11.00;;;;;;;26.74;50.54;98734.04;233452;1199;140941;-58
2022/07/23 16:45:18;;;;;;;16.90;10.20;;;;;;;26.76;51.05;98774.58;234107;1199;139225;-57
2022/07/23 16:50:22;;;;;;;13.70;10.70;;;;;;;26.85;51.36;98788.93;234137;1198;141033;-59
2022/07/23 16:55:25;;;;;;;13.60;10.40;;;;;;;26.94;51.62;98810.77;234111;1199;139659;-58
2022/07/23 17:00:28;;;;;;;41.80;32.20;;;;;;;26.96;51.75;98832.11;234165;1198;141184;-56
2022/07/23 17:05:31;;;;;;;24.30;13.80;;;;;;;26.86;52.08;98844.95;234212;1199;139740;-57
2022/07/23 17:10:34;;;;;;;13.10;10.30;;;;;;;26.82;52.55;98866.38;234161;1199;139295;-60
2022/07/23 17:15:37;;;;;;;13.40;11.60;;;;;;;26.84;52.77;98903.71;234085;1199;140053;-59
2022/07/23 17:20:41;;;;;;;15.10;9.80;;;;;;;26.84;52.79;98917.98;234154;1199;139187;-62
2022/07/23 17:25:43;;;;;;;15.70;11.00;;;;;;;26.87;52.96;98924.02;234070;1199;140229;-58
2022/07/23 17:30:47;;;;;;;19.90;11.30;;;;;;;26.87;53.05;98941.70;234115;1199;139324;-58
2022/07/23 17:35:52;;;;;;;15.10;10.80;;;;;;;26.87;53.12;98951.71;234161;1199;139587;-61
2022/07/23 17:40:55;;;;;;;13.60;9.30;;;;;;;26.89;53.39;98960.33;234278;1199;139540;-59
2022/07/23 17:45:58;;;;;;;16.30;11.40;;;;;;;26.89;53.32;98971.46;234077;1199;139622;-58
2022/07/23 17:51:02;;;;;;;15.10;12.30;;;;;;;26.79;53.13;98969.82;234185;1199;140171;-60
2022/07/23 17:56:05;;;;;;;79.40;64.50;;;;;;;26.63;53.27;98979.80;234062;1199;139892;-61
2022/07/23 18:01:08;;;;;;;11.40;9.60;;;;;;;26.47;53.55;98972.44;234064;1199;140367;-60
2022/07/23 18:06:12;;;;;;;12.80;8.00;;;;;;;26.45;54.09;98938.79;234039;1199;139979;-59
2022/07/23 18:11:16;;;;;;;9.90;8.30;;;;;;;26.42;54.19;98922.44;234140;1199;140227;-60
2022/07/23 18:16:19;;;;;;;11.00;8.90;;;;;;;26.34;54.40;98934.73;234081;1199;139443;-59
2022/07/23 18:21:22;;;;;;;10.80;8.60;;;;;;;26.41;54.98;98953.31;234020;1199;139241;-60
2022/07/23 18:26:25;;;;;;;14.60;13.10;;;;;;;26.41;54.89;98968.56;234164;1199;139872;-61
2022/07/23 18:31:28;;;;;;;13.10;9.60;;;;;;;26.39;54.88;98995.17;234117;1199;140555;-60
2022/07/23 18:36:31;;;;;;;129.60;113.10;;;;;;;26.45;54.79;99030.20;234155;1199;139758;-60
2022/07/23 18:41:34;;;;;;;26.20;17.20;;;;;;;26.39;54.68;99051.27;234047;1199;139950;-58
2022/07/23 18:46:37;;;;;;;16.70;11.30;;;;;;;26.41;55.03;99034.07;233979;1199;139484;-58
2022/07/23 18:51:40;;;;;;;14.70;11.10;;;;;;;26.47;55.44;98996.13;234177;1199;140404;-58
2022/07/23 18:56:43;;;;;;;17.10;10.10;;;;;;;26.46;55.83;98975.79;234127;1199;139640;-59
2022/07/23 19:01:46;;;;;;;44.30;36.50;;;;;;;26.35;55.76;98977.69;234217;1198;141127;-61
2022/07/23 19:06:50;;;;;;;43.40;36.90;;;;;;;26.17;55.62;98997.52;234080;1199;139667;-62
2022/07/23 19:11:54;;;;;;;18.50;12.90;;;;;;;26.05;56.13;99009.03;234065;1199;139902;-58
2022/07/23 19:16:57;;;;;;;15.60;10.10;;;;;;;26.13;56.39;98990.77;234150;1199;139567;-57
2022/07/23 19:22:01;;;;;;;15.70;9.90;;;;;;;26.13;56.32;98982.20;234053;1199;139660;-59
2022/07/23 19:27:04;;;;;;;14.30;9.70;;;;;;;26.02;56.03;98965.31;234054;1199;139808;-59
2022/07/23 19:32:08;;;;;;;18.60;9.70;;;;;;;25.84;56.18;98965.22;234198;1199;139861;-59
2022/07/23 19:37:13;;;;;;;150.50;112.60;;;;;;;25.73;56.54;98965.98;234115;1198;139497;-59
2022/07/23 19:42:16;;;;;;;19.60;10.90;;;;;;;25.65;56.45;98952.89;233960;1199;141849;-60
2022/07/23 19:47:20;;;;;;;21.70;10.30;;;;;;;25.57;56.74;98946.27;234211;1199;139863;-59
2022/07/23 19:52:23;;;;;;;45.40;35.50;;;;;;;25.49;57.00;98960.06;233907;1199;139343;-60
2022/07/23 19:57:26;;;;;;;15.10;10.40;;;;;;;25.56;57.63;98967.81;234098;1199;140279;-62
2022/07/23 20:02:29;;;;;;;748.10;577.00;;;;;;;25.68;57.68;98972.97;234112;1199;139725;-59
2022/07/23 20:07:32;;;;;;;31.70;23.70;;;;;;;25.57;57.30;98975.83;234150;1199;139819;-60
2022/07/23 20:12:36;;;;;;;74.00;58.60;;;;;;;25.44;57.36;98985.33;233983;1199;141086;-58
2022/07/23 20:17:39;;;;;;;14.50;10.50;;;;;;;25.33;57.73;98986.70;234123;1199;140529;-59
2022/07/23 20:22:42;;;;;;;14.60;9.40;;;;;;;25.26;57.74;98992.27;234274;1199;139782;-62
2022/07/23 20:27:44;;;;;;;13.60;9.30;;;;;;;25.21;57.93;98999.05;234003;1199;139432;-60
2022/07/23 20:32:48;;;;;;;13.00;9.70;;;;;;;25.14;58.01;99000.88;234057;1199;139717;-60
2022/07/23 20:37:50;;;;;;;16.20;11.00;;;;;;;25.06;58.32;99002.67;234082;1199;139555;-60
2022/07/23 20:42:54;;;;;;;31.20;24.70;;;;;;;25.11;58.85;99003.77;234139;1199;141043;-59
2022/07/23 20:47:57;;;;;;;25.20;13.80;;;;;;;25.24;58.88;99012.67;234128;1199;140055;-60
2022/07/23 20:53:00;;;;;;;12.20;10.10;;;;;;;25.24;58.85;99018.82;234134;1199;140068;-60
2022/07/23 20:58:03;;;;;;;14.10;10.10;;;;;;;25.23;58.76;99019.36;234061;1199;139863;-60
2022/07/23 21:03:07;;;;;;;224.80;174.20;;;;;;;25.19;58.97;99024.55;234200;1199;139505;-60
2022/07/23 21:08:10;;;;;;;19.00;13.40;;;;;;;25.16;59.01;99030.46;234136;1199;140308;-57
2022/07/23 21:13:13;;;;;;;16.80;11.30;;;;;;;25.12;59.04;99041.45;234180;1199;141495;-59
2022/07/23 21:18:18;;;;;;;;;;;;;;;25.02;59.12;99043.27;234162;1198;139554;-60
2022/07/23 21:23:21;;;;;;;18.20;11.10;;;;;;;24.95;59.51;99034.49;234342;1199;126743;-57
2022/07/23 21:28:24;;;;;;;16.60;10.90;;;;;;;25.16;60.34;99038.20;234125;1198;140159;-59
2022/07/23 21:33:27;;;;;;;16.00;10.60;;;;;;;25.15;59.51;99032.86;234056;1199;139685;-57
2022/07/23 21:38:30;;;;;;;12.90;10.70;;;;;;;25.00;59.51;99018.44;234065;1199;140574;-59
2022/07/23 21:43:33;;;;;;;21.30;13.40;;;;;;;24.87;59.44;99017.70;234093;1199;139638;-59
2022/07/23 21:48:38;;;;;;;16.30;10.80;;;;;;;24.87;59.91;99029.52;234123;1199;139463;-56
2022/07/23 21:53:41;;;;;;;19.30;9.50;;;;;;;24.76;59.83;99038.23;234085;1199;140993;-55
2022/07/23 21:58:44;;;;;;;25.40;11.90;;;;;;;24.91;60.43;99030.84;234257;1199;140035;-55
2022/07/23 22:03:47;;;;;;;14.10;9.00;;;;;;;25.03;60.37;99034.07;234091;1199;140059;-55
2022/07/23 22:08:50;;;;;;;16.10;9.90;;;;;;;25.12;60.26;99036.27;234043;1199;139493;-55
2022/07/23 22:13:53;;;;;;;17.80;9.90;;;;;;;25.19;60.21;99046.16;234161;1199;139073;-55
2022/07/23 22:18:56;;;;;;;13.10;9.40;;;;;;;25.27;59.84;99044.47;234158;1199;139561;-55
2022/07/23 22:23:59;;;;;;;11.10;9.10;;;;;;;25.24;59.75;99040.08;234032;1199;139546;-55
2022/07/23 22:29:03;;;;;;;15.50;9.00;;;;;;;25.25;59.76;99043.03;234141;1199;139535;-55
2022/07/23 22:34:06;;;;;;;12.00;9.90;;;;;;;25.24;59.46;99042.29;234110;1199;139820;-55
2022/07/23 22:39:10;;;;;;;63.00;56.40;;;;;;;25.23;59.58;99038.55;234042;1199;139294;-56
2022/07/23 22:44:13;;;;;;;14.00;11.40;;;;;;;25.19;59.40;99036.70;234086;1199;140249;-56
2022/07/23 22:49:16;;;;;;;51.00;32.50;;;;;;;25.14;59.65;99039.67;234162;1199;140549;-58
2022/07/23 22:54:19;;;;;;;13.60;10.80;;;;;;;25.04;59.31;99037.13;234099;1199;139683;-59
2022/07/23 22:59:22;;;;;;;11.30;9.30;;;;;;;24.83;59.25;99041.30;234194;1199;140148;-58
2022/07/23 23:04:31;;;;;;;14.90;10.20;;;;;;;24.68;59.52;99033.70;234204;1199;140152;-56